Time;durP1;ratioP1;P1;durP2;ratioP2;P2;SDS_P1;SDS_P2;PMS_P1;PMS_P2;Temp;Humidity;BMP_temperature;BMP_pressure;BME280_temperature;BME280_humidity;BME280_pressure;Samples;Min_cycle;Max_cycle;Signal;HPM_P1;HPM_P2
2024/01/17 00:00:37;;;;;;;0.73;0.60;;;;;;;-0.71;100.00;99265.00;5109278;28;20994;-61
2024/01/17 00:03:03;;;;;;;1.03;0.93;;;;;;;-0.64;100.00;99265.66;5109395;28;20447;-60
2024/01/17 00:05:30;;;;;;;1.10;1.00;;;;;;;-0.69;100.00;99259.06;5109338;28;20453;-61
2024/01/17 00:07:57;;;;;;;1.37;0.90;;;;;;;-0.70;100.00;99244.88;5109001;28;20462;-60
2024/01/17 00:10:24;;;;;;;0.40;0.40;;;;;;;-0.68;100.00;99240.63;5109016;28;20463;-60
2024/01/17 00:12:52;;;;;;;0.47;0.47;;;;;;;-0.54;100.00;99231.94;5109061;28;20497;-60
2024/01/17 00:15:19;;;;;;;0.87;0.87;;;;;;;-0.58;100.00;99225.34;5108996;28;20448;-60
2024/01/17 00:17:47;;;;;;;0.50;0.50;;;;;;;-0.55;100.00;99226.09;5109000;28;20455;-61
2024/01/17 00:20:14;;;;;;;1.03;0.90;;;;;;;-0.49;100.00;99235.19;5109000;28;20447;-61
2024/01/17 00:22:41;;;;;;;0.70;0.70;;;;;;;-0.51;100.00;99241.91;5108810;28;20447;-60
2024/01/17 00:25:09;;;;;;;1.20;0.87;;;;;;;-0.44;100.00;99243.41;5109312;28;20477;-60
2024/01/17 00:27:36;;;;;;;1.57;1.17;;;;;;;-0.46;100.00;99245.97;5108868;28;20594;-60
2024/01/17 00:30:06;;;;;;;1.33;0.90;;;;;;;-0.41;100.00;99250.84;5108831;28;20454;-60
2024/01/17 00:32:33;;;;;;;0.77;0.33;;;;;;;-0.38;100.00;99247.44;5108951;28;20447;-60
2024/01/17 00:35:00;;;;;;;1.73;0.93;;;;;;;-0.35;100.00;99253.25;5108736;28;20447;-60
2024/01/17 00:37:26;;;;;;;0.60;0.60;;;;;;;-0.17;100.00;99256.97;5108763;28;20450;-60
2024/01/17 00:39:53;;;;;;;1.50;0.40;;;;;;;-0.19;100.00;99257.88;5108852;28;20459;-60
2024/01/17 00:42:20;;;;;;;0.53;0.47;;;;;;;-0.21;100.00;99259.59;5108717;28;20443;-60
2024/01/17 00:44:47;;;;;;;0.60;0.57;;;;;;;-0.23;100.00;99262.16;5108574;28;20796;-60
2024/01/17 00:47:15;;;;;;;1.13;0.97;;;;;;;-0.17;100.00;99261.19;5108774;28;20197;-60
2024/01/17 00:49:42;;;;;;;0.93;0.93;;;;;;;-0.16;100.00;99251.06;5108826;28;20208;-60
2024/01/17 00:52:09;;;;;;;0.30;0.30;;;;;;;-0.27;100.00;99251.34;5109110;28;20304;-60
2024/01/17 00:54:36;;;;;;;0.43;0.43;;;;;;;-0.27;100.00;99261.38;5108551;28;20662;-60
2024/01/17 00:57:03;;;;;;;0.60;0.60;;;;;;;-0.18;100.00;99262.00;5111667;28;20198;-60
2024/01/17 00:59:30;;;;;;;1.13;0.67;;;;;;;-0.12;100.00;99264.38;5112619;28;20208;-60
2024/01/17 01:01:57;;;;;;;1.30;1.20;;;;;;;-0.12;100.00;99261.84;5112399;28;20680;-61
2024/01/17 01:04:25;;;;;;;1.47;1.00;;;;;;;-0.08;100.00;99253.41;5112489;28;20204;-60
2024/01/17 01:06:52;;;;;;;0.97;0.87;;;;;;;-0.08;100.00;99246.66;5112464;27;20194;-60
2024/01/17 01:09:19;;;;;;;0.50;0.50;;;;;;;-0.06;100.00;99249.97;5112675;28;20201;-61
2024/01/17 01:11:45;;;;;;;0.50;0.50;;;;;;;-0.04;100.00;99247.41;5112276;28;20450;-60
2024/01/17 01:14:12;;;;;;;1.87;0.67;;;;;;;-0.02;100.00;99243.19;5112700;28;20256;-60
2024/01/17 01:16:40;;;;;;;0.97;0.80;;;;;;;0.06;100.00;99242.94;5112255;28;20197;-61
2024/01/17 01:19:07;;;;;;;0.87;0.70;;;;;;;0.03;100.00;99241.38;5112477;28;20201;-60
2024/01/17 01:21:35;;;;;;;0.50;0.50;;;;;;;0.25;99.81;99233.22;5112114;28;20201;-60
2024/01/17 01:24:02;;;;;;;1.57;1.00;;;;;;;0.10;100.00;99225.25;5112189;28;20442;-60
2024/01/17 01:26:29;;;;;;;0.73;0.73;;;;;;;0.03;100.00;99225.44;5112220;28;20197;-61
2024/01/17 01:28:56;;;;;;;0.63;0.60;;;;;;;0.09;100.00;99228.63;5112060;28;20700;-60
2024/01/17 01:31:23;;;;;;;0.77;0.77;;;;;;;0.10;99.86;99224.41;5112143;28;20446;-60
2024/01/17 01:33:50;;;;;;;1.10;0.97;;;;;;;0.11;99.95;99223.53;5111849;28;20232;-60
2024/01/17 01:36:17;;;;;;;0.90;0.77;;;;;;;0.07;99.61;99216.97;5111870;28;20681;-60
2024/01/17 01:38:45;;;;;;;3.13;1.30;;;;;;;0.11;99.33;99211.78;5111894;28;20198;-60
2024/01/17 01:41:11;;;;;;;1.73;1.00;;;;;;;0.08;99.08;99211.88;5111818;28;20236;-60
2024/01/17 01:43:38;;;;;;;0.50;0.50;;;;;;;0.20;98.64;99209.06;5111658;28;20197;-60
2024/01/17 01:46:13;;;;;;;1.50;1.23;;;;;;;0.23;98.28;99210.63;5111772;28;20202;-60
2024/01/17 01:48:42;;;;;;;0.83;0.67;;;;;;;0.22;98.52;99209.81;5112007;28;20193;-60
2024/01/17 01:51:09;;;;;;;1.00;0.90;;;;;;;0.27;97.33;99204.66;5111881;28;20270;-60
2024/01/17 01:53:37;;;;;;;0.67;0.67;;;;;;;0.10;97.93;99214.38;5111621;28;20251;-60
2024/01/17 01:56:07;;;;;;;0.70;0.70;;;;;;;0.18;97.92;99213.28;5111490;28;20197;-60
2024/01/17 01:58:36;;;;;;;1.20;1.10;;;;;;;0.28;97.01;99210.50;5111810;28;20216;-60
2024/01/17 02:01:04;;;;;;;0.30;0.30;;;;;;;0.26;96.96;99212.22;5111668;28;20197;-60
2024/01/17 02:03:31;;;;;;;1.30;0.97;;;;;;;0.24;96.97;99206.44;5111428;28;20206;-60
2024/01/17 02:06:00;;;;;;;1.00;0.90;;;;;;;0.26;96.99;99204.69;5111263;28;20216;-60
2024/01/17 02:08:28;;;;;;;0.53;0.50;;;;;;;0.27;96.37;99201.34;5110210;27;20201;-60
2024/01/17 02:10:55;;;;;;;1.40;0.67;;;;;;;0.32;96.27;99199.50;5111452;28;20201;-60
2024/01/17 02:13:23;;;;;;;0.97;0.97;;;;;;;0.25;97.30;99195.50;5111183;28;20228;-60
2024/01/17 02:15:50;;;;;;;0.57;0.53;;;;;;;0.21;97.04;99193.09;5111116;28;20193;-60
2024/01/17 02:18:17;;;;;;;0.30;0.30;;;;;;;0.19;97.23;99192.31;5111050;28;20201;-61
2024/01/17 02:20:44;;;;;;;0.90;0.90;;;;;;;0.21;97.79;99188.06;5111202;28;20205;-60
2024/01/17 02:23:24;;;;;;;0.73;0.50;;;;;;;0.11;98.10;99179.13;5111176;28;20228;-61
2024/01/17 02:25:53;;;;;;;1.20;1.13;;;;;;;0.27;97.94;99176.19;5110936;28;20225;-60
2024/01/17 02:28:20;;;;;;;3.20;0.90;;;;;;;0.21;98.08;99172.97;5111015;28;20205;-61
2024/01/17 02:30:47;;;;;;;0.73;0.73;;;;;;;0.02;98.38;99171.03;5111092;28;20585;-60
2024/01/17 02:33:14;;;;;;;1.00;0.87;;;;;;;0.06;98.18;99175.94;5111127;28;20205;-60
2024/01/17 02:35:42;;;;;;;0.77;0.77;;;;;;;0.07;97.52;99185.09;5110843;28;20955;-61
2024/01/17 02:38:08;;;;;;;0.70;0.70;;;;;;;0.25;96.98;99177.91;5110902;28;20216;-61
2024/01/17 02:40:35;;;;;;;0.70;0.70;;;;;;;0.25;96.59;99182.94;5110932;28;20216;-60
2024/01/17 02:43:04;;;;;;;0.73;0.73;;;;;;;0.18;96.27;99183.13;5110731;28;20201;-60
2024/01/17 02:45:31;;;;;;;0.73;0.73;;;;;;;0.12;96.58;99170.72;5110478;28;20701;-60
2024/01/17 02:47:58;;;;;;;0.60;0.60;;;;;;;0.02;96.46;99164.28;5110549;28;20282;-60
2024/01/17 02:50:25;;;;;;;1.57;0.70;;;;;;;-0.07;96.82;99157.84;5110371;28;20212;-60
2024/01/17 02:52:52;;;;;;;1.53;1.00;;;;;;;-0.11;96.63;99150.44;5110502;28;20447;-60
2024/01/17 02:55:20;;;;;;;1.07;0.57;;;;;;;-0.04;96.59;99151.91;5110415;28;20229;-60
2024/01/17 02:57:47;;;;;;;1.00;1.00;;;;;;;-0.08;96.45;99142.81;5110286;28;20450;-60
2024/01/17 03:00:15;;;;;;;0.97;0.87;;;;;;;-0.12;96.85;99143.75;5110297;28;20594;-60
2024/01/17 03:02:42;;;;;;;0.40;0.40;;;;;;;-0.11;97.32;99145.41;5110197;28;20990;-60
2024/01/17 03:05:10;;;;;;;0.60;0.60;;;;;;;-0.18;98.03;99143.94;5110567;28;20451;-60
2024/01/17 03:07:37;;;;;;;1.80;1.63;;;;;;;-0.18;98.85;99128.84;5110037;28;20450;-60
2024/01/17 03:10:04;;;;;;;0.77;0.77;;;;;;;-0.35;99.62;99129.31;5109987;28;20479;-60
2024/01/17 03:12:31;;;;;;;1.10;0.80;;;;;;;-0.59;100.00;99128.28;5110198;28;20454;-60
2024/01/17 03:14:58;;;;;;;1.33;1.07;;;;;;;-0.70;100.00;99121.00;5110078;27;20521;-60
2024/01/17 03:17:26;;;;;;;1.53;0.90;;;;;;;-0.76;100.00;99123.69;5109861;28;20208;-60
2024/01/17 03:19:54;;;;;;;0.47;0.47;;;;;;;-0.55;100.00;99119.81;5109650;28;20451;-60
2024/01/17 03:22:20;;;;;;;2.27;1.10;;;;;;;-0.59;100.00;99123.25;5110493;28;20512;-60
2024/01/17 03:24:47;;;;;;;1.93;0.83;;;;;;;-0.75;100.00;99117.81;5109650;28;20451;-61
2024/01/17 03:27:14;;;;;;;0.87;0.87;;;;;;;-0.78;100.00;99123.75;5109883;28;20473;-61
2024/01/17 03:29:41;;;;;;;1.53;0.80;;;;;;;-0.77;100.00;99125.38;5110095;28;20442;-60
2024/01/17 03:32:08;;;;;;;2.50;1.10;;;;;;;-0.79;100.00;99129.59;5109680;28;20964;-60
2024/01/17 03:34:36;;;;;;;0.80;0.80;;;;;;;-0.84;100.00;99138.97;5109706;28;20486;-60
2024/01/17 03:37:03;;;;;;;3.60;1.90;;;;;;;-0.92;100.00;99146.66;5109594;28;20839;-61
2024/01/17 03:39:33;;;;;;;0.87;0.67;;;;;;;-0.76;100.00;99142.06;5109593;28;20447;-60
2024/01/17 03:42:00;;;;;;;2.27;0.80;;;;;;;-0.85;100.00;99142.31;5109544;28;20455;-60
2024/01/17 03:44:27;;;;;;;0.70;0.70;;;;;;;-0.96;100.00;99144.25;5109601;28;20439;-60
2024/01/17 03:46:53;;;;;;;0.47;0.47;;;;;;;-0.98;100.00;99158.56;5109314;28;20453;-60
2024/01/17 03:49:20;;;;;;;1.07;0.97;;;;;;;-1.03;100.00;99162.84;5109654;28;20467;-60
2024/01/17 03:51:48;;;;;;;2.57;1.47;;;;;;;-1.08;100.00;99155.41;5109307;28;20454;-60
2024/01/17 03:54:15;;;;;;;1.37;1.07;;;;;;;-1.01;100.00;99161.13;5109456;28;21104;-60
2024/01/17 03:56:42;;;;;;;0.87;0.87;;;;;;;-1.04;100.00;99167.06;5109205;28;20567;-60
2024/01/17 03:59:09;;;;;;;0.77;0.70;;;;;;;-1.01;100.00;99161.13;5109376;28;20455;-60
2024/01/17 04:01:43;;;;;;;0.93;0.77;;;;;;;-1.03;100.00;99165.34;5109376;28;20470;-60
2024/01/17 04:04:10;;;;;;;1.07;0.87;;;;;;;-1.04;100.00;99161.22;5109372;28;20912;-60
2024/01/17 04:06:37;;;;;;;1.50;1.20;;;;;;;-1.01;100.00;99166.97;5109409;28;20447;-60
2024/01/17 04:09:06;;;;;;;1.27;1.17;;;;;;;-1.02;100.00;99167.00;5109075;28;20960;-60
2024/01/17 04:11:33;;;;;;;0.67;0.67;;;;;;;-0.92;100.00;99175.97;5108822;28;20884;-60
2024/01/17 04:14:00;;;;;;;0.47;0.47;;;;;;;-0.94;100.00;99167.63;5108856;28;21049;-60
2024/01/17 04:16:27;;;;;;;0.87;0.87;;;;;;;-0.96;100.00;99174.38;5108958;28;20451;-60
2024/01/17 04:18:53;;;;;;;1.10;0.90;;;;;;;-1.07;100.00;99171.31;5108937;28;20443;-60
2024/01/17 04:21:21;;;;;;;1.53;1.00;;;;;;;-1.09;100.00;99160.50;5109180;28;20440;-60
2024/01/17 04:23:48;;;;;;;2.73;0.83;;;;;;;-1.10;100.00;99159.66;5109207;28;20451;-60
2024/01/17 04:26:23;;;;;;;0.90;0.90;;;;;;;-1.15;100.00;99159.75;5108839;28;20821;-60
2024/01/17 04:28:51;;;;;;;1.40;0.90;;;;;;;-1.31;100.00;99163.50;5108817;28;20447;-60
2024/01/17 04:31:25;;;;;;;1.37;1.27;;;;;;;-1.29;100.00;99166.78;5110828;28;20538;-60
2024/01/17 04:33:52;;;;;;;1.10;1.03;;;;;;;-1.25;100.00;99165.88;5113328;28;20478;-60
2024/01/17 04:36:19;;;;;;;1.33;0.93;;;;;;;-1.20;100.00;99166.56;5113056;28;20451;-61
2024/01/17 04:38:47;;;;;;;0.67;0.67;;;;;;;-1.21;100.00;99166.63;5113048;28;20982;-60
2024/01/17 04:41:15;;;;;;;0.90;0.83;;;;;;;-1.17;100.00;99160.66;5112808;28;20919;-60
2024/01/17 04:43:45;;;;;;;1.03;0.80;;;;;;;-1.02;100.00;99172.00;5112798;28;20450;-60
2024/01/17 04:46:14;;;;;;;4.73;1.40;;;;;;;-0.99;100.00;99170.28;5113121;28;20454;-61
2024/01/17 04:48:41;;;;;;;1.13;0.97;;;;;;;-1.42;100.00;99160.41;5113035;28;20455;-60
2024/01/17 04:51:10;;;;;;;0.50;0.50;;;;;;;-1.38;100.00;99162.81;5112935;28;20485;-60
2024/01/17 04:53:37;;;;;;;0.77;0.70;;;;;;;-1.27;100.00;99170.09;5112698;28;20439;-60
2024/01/17 04:56:05;;;;;;;0.80;0.80;;;;;;;-1.35;100.00;99171.94;5112549;28;20478;-60
2024/01/17 04:58:32;;;;;;;0.67;0.50;;;;;;;-1.33;100.00;99175.25;5112630;28;20971;-61
2024/01/17 05:01:01;;;;;;;0.50;0.50;;;;;;;-1.17;100.00;99179.03;5112628;28;20814;-61
2024/01/17 05:03:28;;;;;;;0.77;0.60;;;;;;;-1.26;100.00;99184.28;5112585;28;20447;-60
2024/01/17 05:05:55;;;;;;;2.43;1.10;;;;;;;-1.16;100.00;99183.22;5112664;28;20471;-60
2024/01/17 05:08:22;;;;;;;0.80;0.80;;;;;;;-1.14;100.00;99176.47;5112885;28;20457;-60
2024/01/17 05:10:49;;;;;;;1.60;1.20;;;;;;;-1.20;100.00;99179.09;5112531;28;20483;-60
2024/01/17 05:13:16;;;;;;;1.00;0.93;;;;;;;-1.12;100.00;99178.94;5112372;28;20457;-61
2024/01/17 05:15:43;;;;;;;1.03;0.83;;;;;;;-1.09;100.00;99183.06;5112430;28;21049;-61
2024/01/17 05:18:11;;;;;;;0.77;0.77;;;;;;;-1.23;100.00;99185.88;5112249;28;20904;-61
2024/01/17 05:20:38;;;;;;;0.50;0.50;;;;;;;-1.26;100.00;99186.78;5112123;28;20964;-61
2024/01/17 05:23:05;;;;;;;0.77;0.70;;;;;;;-1.30;100.00;99179.38;5112641;28;20201;-60
2024/01/17 05:25:33;;;;;;;0.20;0.20;;;;;;;-1.57;100.00;99179.13;5112280;28;20567;-60
2024/01/17 05:28:00;;;;;;;1.23;1.13;;;;;;;-1.74;100.00;99178.66;5112201;28;20457;-60
2024/01/17 05:30:27;;;;;;;2.50;0.43;;;;;;;-1.77;100.00;99189.56;5112264;28;20454;-60
2024/01/17 05:32:55;;;;;;;1.00;0.90;;;;;;;-1.73;100.00;99182.81;5112005;28;20442;-61
2024/01/17 05:35:23;;;;;;;0.63;0.63;;;;;;;-1.66;100.00;99181.81;5112109;28;20881;-60
2024/01/17 05:37:51;;;;;;;0.80;0.53;;;;;;;-1.64;100.00;99180.91;5112147;28;20466;-62
2024/01/17 05:40:18;;;;;;;2.17;0.90;;;;;;;-1.66;100.00;99180.16;5111779;28;20439;-61
2024/01/17 05:42:46;;;;;;;0.87;0.83;;;;;;;-1.58;100.00;99194.19;5111450;28;20967;-62
2024/01/17 05:45:13;;;;;;;1.23;1.13;;;;;;;-1.55;100.00;99204.16;5111704;28;21038;-61
2024/01/17 05:47:40;;;;;;;0.60;0.60;;;;;;;-1.48;100.00;99205.69;5111787;28;20439;-62
2024/01/17 05:50:09;;;;;;;3.37;1.63;;;;;;;-1.46;100.00;99204.75;5111843;28;20883;-61
2024/01/17 05:52:39;;;;;;;0.93;0.90;;;;;;;-1.53;100.00;99203.25;5111783;28;20528;-61
2024/01/17 05:55:07;;;;;;;0.77;0.70;;;;;;;-1.78;100.00;99210.44;5111487;28;21027;-61
2024/01/17 05:57:34;;;;;;;2.23;0.87;;;;;;;-1.66;100.00;99200.19;5111491;28;20451;-61
2024/01/17 06:00:01;;;;;;;0.30;0.30;;;;;;;-1.51;100.00;99200.72;5111327;28;21015;-61
2024/01/17 06:02:27;;;;;;;1.77;1.10;;;;;;;-1.69;100.00;99202.75;5111611;28;20442;-62
2024/01/17 06:04:54;;;;;;;0.50;0.50;;;;;;;-1.52;100.00;99204.09;5111307;28;20455;-61
2024/01/17 06:07:21;;;;;;;0.83;0.83;;;;;;;-1.53;100.00;99197.44;5111304;28;20547;-61
2024/01/17 06:09:50;;;;;;;1.53;0.93;;;;;;;-1.52;100.00;99199.06;5111229;28;20475;-62
2024/01/17 06:12:17;;;;;;;2.27;1.23;;;;;;;-1.53;100.00;99197.44;5111139;28;20452;-61
2024/01/17 06:14:43;;;;;;;1.43;1.17;;;;;;;-1.53;100.00;99199.94;5111050;28;20521;-61
2024/01/17 06:17:10;;;;;;;0.80;0.80;;;;;;;-1.47;100.00;99189.78;5110995;28;20443;-61
2024/01/17 06:19:37;;;;;;;0.60;0.60;;;;;;;-1.50;100.00;99193.16;5111508;28;20443;-61
2024/01/17 06:22:04;;;;;;;1.40;1.20;;;;;;;-1.44;100.00;99194.72;5110872;28;20453;-61
2024/01/17 06:24:31;;;;;;;1.77;1.60;;;;;;;-1.55;100.00;99192.44;5110932;28;20722;-62
2024/01/17 06:26:59;;;;;;;2.37;1.40;;;;;;;-1.57;100.00;99191.66;5110852;28;20443;-61
2024/01/17 06:29:26;;;;;;;1.77;1.23;;;;;;;-1.44;100.00;99199.72;5111102;28;20479;-61
2024/01/17 06:31:53;;;;;;;1.60;1.07;;;;;;;-1.49;100.00;99204.00;5111079;28;20457;-62
2024/01/17 06:34:20;;;;;;;0.87;0.87;;;;;;;-1.40;100.00;99198.78;5110850;28;20967;-62
2024/01/17 06:36:47;;;;;;;1.00;0.77;;;;;;;-1.17;100.00;99189.06;5110838;28;20491;-61
2024/01/17 06:39:16;;;;;;;1.13;1.10;;;;;;;-1.01;100.00;99186.22;5110726;28;20451;-61
2024/01/17 06:41:43;;;;;;;0.27;0.27;;;;;;;-0.90;100.00;99169.22;5110796;28;20442;-61
2024/01/17 06:44:11;;;;;;;1.13;1.03;;;;;;;-0.95;100.00;99173.53;5110666;28;20447;-61
2024/01/17 06:46:38;;;;;;;1.50;1.17;;;;;;;-0.97;100.00;99183.59;5110694;28;20443;-61
2024/01/17 06:49:05;;;;;;;1.13;1.03;;;;;;;-0.81;100.00;99176.53;5110522;28;20467;-61
2024/01/17 06:51:32;;;;;;;0.80;0.70;;;;;;;-0.64;100.00;99172.75;5110237;28;20752;-61
2024/01/17 06:53:59;;;;;;;0.63;0.60;;;;;;;-0.61;100.00;99176.03;5109830;28;20451;-61
2024/01/17 06:56:25;;;;;;;0.50;0.50;;;;;;;-0.62;100.00;99171.03;5110368;28;20494;-61
2024/01/17 06:58:52;;;;;;;1.47;1.37;;;;;;;-0.63;100.00;99184.47;5110410;28;20976;-61
2024/01/17 07:01:20;;;;;;;0.97;0.97;;;;;;;-0.54;100.00;99191.78;5110444;28;20443;-61
2024/01/17 07:03:47;;;;;;;0.50;0.50;;;;;;;-0.45;100.00;99191.53;5110660;28;20447;-62
2024/01/17 07:06:14;;;;;;;1.27;1.10;;;;;;;-0.02;100.00;99203.78;5110167;28;20443;-61
2024/01/17 07:08:41;;;;;;;3.10;1.37;;;;;;;0.02;100.00;99212.06;5110281;28;20197;-61
2024/01/17 07:11:10;;;;;;;1.50;1.17;;;;;;;0.31;100.00;99202.88;5110027;28;20443;-61
2024/01/17 07:13:38;;;;;;;1.30;0.80;;;;;;;0.35;100.00;99196.88;5110106;28;20202;-61
2024/01/17 07:16:05;;;;;;;2.57;0.90;;;;;;;0.51;100.00;99200.59;5109842;28;20228;-61
2024/01/17 07:18:34;;;;;;;1.30;1.20;;;;;;;0.93;100.00;99202.69;5109641;28;20205;-61
2024/01/17 07:21:05;;;;;;;1.07;1.00;;;;;;;1.08;100.00;99197.19;5110008;28;20744;-61
2024/01/17 07:23:32;;;;;;;1.20;0.97;;;;;;;1.20;100.00;99202.72;5110056;28;20201;-61
2024/01/17 07:25:59;;;;;;;3.60;1.47;;;;;;;1.34;99.01;99208.94;5109986;28;20240;-61
2024/01/17 07:28:26;;;;;;;0.70;0.70;;;;;;;1.67;98.21;99208.69;5109792;28;20588;-61
2024/01/17 07:30:52;;;;;;;2.50;1.40;;;;;;;1.76;96.94;99205.84;5109890;28;20193;-61
2024/01/17 07:33:19;;;;;;;1.70;1.30;;;;;;;2.02;95.06;99222.59;5109923;28;20201;-61
2024/01/17 07:35:47;;;;;;;0.70;0.70;;;;;;;1.73;96.11;99216.03;5109463;28;20236;-61
2024/01/17 07:38:15;;;;;;;1.50;1.07;;;;;;;1.91;94.70;99218.81;5109986;28;20209;-61
2024/01/17 07:40:42;;;;;;;2.03;0.70;;;;;;;2.06;93.65;99209.88;5109756;28;20643;-61
2024/01/17 07:43:09;;;;;;;3.27;1.83;;;;;;;1.98;91.87;99205.94;5109734;28;20201;-61
2024/01/17 07:45:36;;;;;;;3.07;1.30;;;;;;;2.10;90.34;99209.72;5109418;28;20193;-61
2024/01/17 07:48:03;;;;;;;1.97;1.37;;;;;;;2.12;88.74;99212.19;5109238;28;20204;-62
2024/01/17 07:50:30;;;;;;;2.83;1.43;;;;;;;2.41;87.28;99203.53;5109401;28;20228;-61
2024/01/17 07:52:58;;;;;;;2.07;1.33;;;;;;;2.50;88.07;99203.19;5109268;28;20247;-60
2024/01/17 07:55:25;;;;;;;3.17;1.80;;;;;;;2.74;85.96;99201.47;5108816;28;20450;-61
2024/01/17 07:57:51;;;;;;;1.80;0.97;;;;;;;2.80;85.55;99191.13;5109417;28;20204;-61
2024/01/17 08:00:19;;;;;;;3.50;1.37;;;;;;;3.08;86.14;99187.50;5109212;28;20204;-61
2024/01/17 08:02:46;;;;;;;2.00;1.30;;;;;;;2.95;83.05;99185.47;5109489;28;20201;-61
2024/01/17 08:05:13;;;;;;;3.37;1.30;;;;;;;2.78;81.51;99179.44;5109180;28;20250;-61
2024/01/17 08:07:39;;;;;;;0.87;0.87;;;;;;;3.05;81.90;99180.88;5109251;28;20200;-61
2024/01/17 08:10:08;;;;;;;1.60;1.00;;;;;;;3.35;80.41;99181.34;5109032;28;20693;-61
2024/01/17 08:12:35;;;;;;;0.57;0.57;;;;;;;3.30;82.42;99185.78;5109153;28;20667;-61
2024/01/17 08:15:02;;;;;;;1.17;1.07;;;;;;;3.24;87.53;99178.44;5109008;28;20200;-61
2024/01/17 08:17:29;;;;;;;2.13;1.70;;;;;;;3.34;89.01;99187.28;5108975;28;20696;-61
2024/01/17 08:19:55;;;;;;;6.63;1.87;;;;;;;3.55;86.65;99192.31;5108742;28;20243;-61
2024/01/17 08:22:22;;;;;;;3.60;1.70;;;;;;;3.54;86.97;99198.28;5109324;28;20200;-61
2024/01/17 08:24:49;;;;;;;2.27;2.07;;;;;;;3.41;88.15;99197.97;5108924;28;20217;-61
2024/01/17 08:27:18;;;;;;;2.47;1.30;;;;;;;3.27;87.42;99208.63;5108857;28;20205;-60
2024/01/17 08:29:46;;;;;;;2.57;1.57;;;;;;;3.20;88.03;99202.19;5108784;28;20193;-61
2024/01/17 08:32:13;;;;;;;4.43;1.83;;;;;;;3.07;88.05;99203.56;5108926;28;20216;-61
2024/01/17 08:34:40;;;;;;;3.87;1.97;;;;;;;3.15;88.69;99197.31;5108814;28;20212;-61
2024/01/17 08:37:06;;;;;;;2.20;1.10;;;;;;;3.13;89.02;99190.69;5108795;28;20230;-60
2024/01/17 08:39:33;;;;;;;3.17;1.20;;;;;;;3.26;90.59;99191.00;5108876;28;20189;-62
2024/01/17 08:42:00;;;;;;;1.87;1.17;;;;;;;3.29;90.71;99188.38;5108694;28;20200;-60
2024/01/17 08:44:28;;;;;;;2.10;1.33;;;;;;;3.11;89.46;99189.91;5108724;28;20200;-60
2024/01/17 08:46:55;;;;;;;2.07;1.57;;;;;;;3.26;90.31;99194.38;5109050;28;20197;-61
2024/01/17 08:49:22;;;;;;;1.93;1.40;;;;;;;3.35;88.24;99191.47;5109162;28;20251;-61
2024/01/17 08:51:50;;;;;;;1.97;1.63;;;;;;;3.36;89.96;99189.75;5108827;28;20209;-61
2024/01/17 08:54:17;;;;;;;2.07;1.50;;;;;;;3.37;89.82;99192.22;5108696;28;20725;-61
2024/01/17 08:56:44;;;;;;;1.97;1.10;;;;;;;3.17;89.51;99189.66;5108628;28;20232;-62
2024/01/17 08:59:11;;;;;;;2.57;2.10;;;;;;;3.09;90.43;99206.84;5108637;28;20201;-61
2024/01/17 09:01:39;;;;;;;1.60;1.50;;;;;;;3.07;87.59;99204.38;5108556;28;20602;-61
2024/01/17 09:04:05;;;;;;;1.90;1.57;;;;;;;3.03;87.41;99202.03;5108673;28;20205;-61
2024/01/17 09:06:32;;;;;;;1.67;1.53;;;;;;;3.07;88.51;99193.47;5108455;28;20200;-61
2024/01/17 09:08:59;;;;;;;2.07;1.33;;;;;;;3.27;88.39;99203.56;5108764;28;20197;-61
2024/01/17 09:11:26;;;;;;;1.53;1.43;;;;;;;3.36;87.09;99203.19;5108500;28;20240;-61
2024/01/17 09:13:53;;;;;;;1.60;1.43;;;;;;;3.43;86.96;99192.84;5108592;28;20197;-62
2024/01/17 09:16:19;;;;;;;2.50;1.50;;;;;;;3.39;86.86;99175.28;5108591;28;20245;-62
2024/01/17 09:18:48;;;;;;;1.30;1.13;;;;;;;3.38;85.69;99173.66;5112121;28;20700;-61
2024/01/17 09:21:15;;;;;;;1.57;1.47;;;;;;;3.44;85.70;99166.69;5112462;28;20197;-61
2024/01/17 09:23:42;;;;;;;3.70;2.23;;;;;;;3.60;84.02;99168.50;5112247;28;20212;-61
2024/01/17 09:26:09;;;;;;;1.30;1.20;;;;;;;3.50;83.63;99156.31;5112071;28;20212;-61
2024/01/17 09:28:36;;;;;;;3.87;1.10;;;;;;;3.46;84.07;99159.84;5112185;28;20201;-62
2024/01/17 09:31:02;;;;;;;0.93;0.90;;;;;;;3.36;84.32;99157.72;5111958;28;20213;-62
2024/01/17 09:33:29;;;;;;;1.07;0.90;;;;;;;3.40;83.44;99161.78;5111952;28;20201;-61
2024/01/17 09:35:57;;;;;;;1.73;1.10;;;;;;;3.42;83.55;99154.13;5111936;28;20620;-61
2024/01/17 09:38:24;;;;;;;1.87;1.30;;;;;;;3.39;86.07;99159.28;5112288;28;20201;-62
2024/01/17 09:40:51;;;;;;;1.83;1.53;;;;;;;3.40;86.46;99156.72;5111736;28;20212;-62
2024/01/17 09:43:19;;;;;;;1.93;1.57;;;;;;;3.52;86.10;99159.59;5111928;27;20202;-62
2024/01/17 09:45:46;;;;;;;2.17;1.73;;;;;;;3.52;90.49;99159.59;5111960;28;20193;-61
2024/01/17 09:48:15;;;;;;;3.57;1.53;;;;;;;3.47;92.07;99151.41;5111968;28;20215;-61
2024/01/17 09:50:42;;;;;;;2.03;1.70;;;;;;;3.32;92.76;99143.56;5111907;28;20213;-61
2024/01/17 09:53:12;;;;;;;3.23;1.70;;;;;;;3.13;94.30;99137.63;5111659;28;20204;-61
2024/01/17 09:55:42;;;;;;;3.00;1.43;;;;;;;3.02;94.64;99139.78;5111614;28;20274;-61
2024/01/17 09:58:11;;;;;;;2.77;1.60;;;;;;;3.08;94.79;99134.47;5111697;28;20215;-62
2024/01/17 10:00:41;;;;;;;4.03;1.90;;;;;;;3.02;95.45;99129.66;5111619;28;20212;-61
2024/01/17 10:03:09;;;;;;;1.13;1.07;;;;;;;2.87;97.18;99126.88;5111855;28;20205;-61
2024/01/17 10:05:37;;;;;;;2.07;1.43;;;;;;;2.91;96.39;99123.38;5111697;28;20208;-61
2024/01/17 10:08:05;;;;;;;2.33;1.80;;;;;;;2.84;96.73;99105.97;5111369;28;20201;-61
2024/01/17 10:10:33;;;;;;;1.93;1.60;;;;;;;2.95;96.75;99109.72;5111263;28;20634;-61
2024/01/17 10:13:00;;;;;;;4.63;2.23;;;;;;;2.93;95.49;99111.47;5111515;28;20228;-61
2024/01/17 10:15:31;;;;;;;1.40;1.17;;;;;;;2.91;95.55;99112.44;5111176;28;20229;-60
2024/01/17 10:17:58;;;;;;;1.53;0.90;;;;;;;2.76;94.41;99113.84;5111282;28;20227;-60
2024/01/17 10:20:25;;;;;;;3.50;1.53;;;;;;;2.58;93.49;99107.84;5110955;27;20201;-60
2024/01/17 10:22:51;;;;;;;1.73;1.00;;;;;;;2.40;93.75;99101.81;5111404;28;20197;-61
2024/01/17 10:25:18;;;;;;;1.77;1.63;;;;;;;2.40;95.30;99101.81;5111150;28;20200;-60
2024/01/17 10:27:48;;;;;;;1.57;1.43;;;;;;;2.35;93.81;99093.59;5110508;28;20197;-60
2024/01/17 10:30:16;;;;;;;2.47;1.40;;;;;;;2.27;93.09;99083.00;5110364;28;20212;-60
2024/01/17 10:32:43;;;;;;;4.00;1.63;;;;;;;2.21;94.01;99085.72;5111177;28;20209;-61
2024/01/17 10:35:11;;;;;;;5.30;1.13;;;;;;;2.17;94.05;99089.25;5110816;28;20250;-60
2024/01/17 10:37:38;;;;;;;2.93;2.43;;;;;;;2.18;95.06;99079.13;5110903;28;20225;-60
2024/01/17 10:40:11;;;;;;;2.03;1.73;;;;;;;2.09;95.60;99086.19;5110933;28;20213;-60
2024/01/17 10:42:38;;;;;;;2.20;1.87;;;;;;;2.09;96.54;99086.19;5110747;28;20643;-65
2024/01/17 10:45:08;;;;;;;2.93;1.87;;;;;;;2.02;98.25;99076.34;5110492;28;20205;-60
2024/01/17 10:47:35;;;;;;;2.80;1.80;;;;;;;1.79;99.19;99076.38;5110900;28;20247;-60
2024/01/17 10:50:02;;;;;;;3.23;1.77;;;;;;;1.86;100.00;99074.44;5110285;28;20577;-60
2024/01/17 10:52:35;;;;;;;5.47;1.73;;;;;;;1.95;100.00;99079.97;5110334;28;20197;-60
2024/01/17 10:55:08;;;;;;;3.60;1.80;;;;;;;2.12;100.00;99079.31;5110502;28;20201;-60
2024/01/17 10:57:41;;;;;;;2.33;2.03;;;;;;;2.13;100.00;99067.56;5110275;28;20611;-60
2024/01/17 11:00:15;;;;;;;2.40;1.87;;;;;;;2.18;100.00;99070.72;5110450;28;20200;-60
2024/01/17 11:02:43;;;;;;;2.13;2.00;;;;;;;2.13;100.00;99062.53;5110788;28;20268;-60
2024/01/17 11:05:12;;;;;;;4.23;2.30;;;;;;;2.15;100.00;99065.78;5110259;28;20772;-60
2024/01/17 11:07:40;;;;;;;2.37;2.10;;;;;;;2.17;100.00;99059.00;5110539;27;20197;-59
2024/01/17 11:10:09;;;;;;;2.37;1.73;;;;;;;2.25;100.00;99067.91;5110171;28;20197;-60
2024/01/17 11:12:37;;;;;;;4.03;3.07;;;;;;;2.41;100.00;99063.06;5110175;28;20266;-60
2024/01/17 11:15:05;;;;;;;3.87;1.80;;;;;;;2.35;100.00;99068.34;5110109;28;20621;-60
2024/01/17 11:17:36;;;;;;;4.37;2.50;;;;;;;2.38;100.00;99057.31;5109856;28;20776;-60
2024/01/17 11:20:08;;;;;;;3.13;2.20;;;;;;;2.26;100.00;99044.31;5109938;28;20431;-60
2024/01/17 11:22:37;;;;;;;2.07;1.47;;;;;;;2.42;100.00;99048.78;5110095;28;20781;-62
2024/01/17 11:25:13;;;;;;;3.53;1.97;;;;;;;2.52;100.00;99039.13;5109721;28;20256;-61
2024/01/17 11:27:46;;;;;;;3.03;1.87;;;;;;;2.65;100.00;99035.25;5109808;28;20584;-61
2024/01/17 11:30:26;;;;;;;3.27;2.20;;;;;;;2.73;100.00;99033.19;5109723;28;20694;-61
2024/01/17 11:33:03;;;;;;;3.13;2.17;;;;;;;2.79;100.00;99027.88;5109655;28;20193;-61
2024/01/17 11:35:51;;;;;;;2.97;2.33;;;;;;;2.70;100.00;99028.28;5109675;28;20254;-61